Time;durP1;ratioP1;P1;durP2;ratioP2;P2;SDS_P1;SDS_P2;PMS_P1;PMS_P2;Temp;Humidity;BMP_temperature;BMP_pressure;BME280_temperature;BME280_humidity;BME280_pressure;Samples;Min_cycle;Max_cycle;Signal;HPM_P1;HPM_P2
2022/08/30 00:01:05;;;;;;;14.50;2.33;;;;;;;19.98;77.66;100790.94;5001380;28;20293;-68
2022/08/30 00:03:59;;;;;;;15.97;2.13;;;;;;;20.23;77.54;100780.88;5000701;28;20286;-67
2022/08/30 00:07:01;;;;;;;;;;;;;;;20.40;77.32;100787.16;5001986;28;20313;-66
2022/08/30 00:10:55;;;;;;;8.63;1.70;;;;;;;20.59;77.27;100793.31;5002383;28;19973;-67
2022/08/30 00:17:50;;;;;;;10.20;1.73;;;;;;;20.76;76.10;100789.81;5046789;28;21000;-65
2022/08/30 00:24:35;;;;;;;46.43;3.53;;;;;;;21.15;74.61;100771.91;5033195;28;20041;-67
2022/08/30 00:28:10;;;;;;;5.70;2.53;;;;;;;21.71;74.63;100763.56;5043855;28;20314;-64
2022/08/30 00:31:23;;;;;;;10.97;1.60;;;;;;;22.03;72.07;100768.06;5045905;28;20294;-67
2022/08/30 00:34:28;;;;;;;16.90;2.17;;;;;;;22.34;71.41;100778.72;5038678;28;20280;-64
2022/08/30 00:37:53;;;;;;;21.83;2.07;;;;;;;22.37;67.45;100762.56;5042940;28;20280;-67
2022/08/30 00:41:06;;;;;;;6.20;0.90;;;;;;;22.29;67.95;100758.63;5045447;28;20279;-64
2022/08/30 00:44:47;;;;;;;14.60;1.40;;;;;;;22.31;68.18;100767.38;5140259;27;20143;-64
2022/08/30 00:48:43;;;;;;;4.18;0.95;;;;;;;22.65;67.74;100750.31;5118835;28;20274;-69
2022/08/30 00:52:19;;;;;;;9.13;1.03;;;;;;;23.41;65.98;100743.97;5145677;27;20169;-67
2022/08/30 00:55:56;;;;;;;4.13;1.03;;;;;;;23.33;64.43;100730.25;5148127;27;20285;-65
2022/08/30 00:59:24;;;;;;;7.38;0.90;;;;;;;22.99;64.44;100727.00;5063135;28;20107;-65
2022/08/30 01:02:43;;;;;;;9.43;0.90;;;;;;;22.91;64.70;100730.09;5064551;28;20075;-65
2022/08/30 01:05:32;;;;;;;8.47;0.90;;;;;;;22.99;64.05;100727.00;5066147;28;20049;-64
2022/08/30 01:09:14;;;;;;;7.13;0.90;;;;;;;23.11;62.99;100709.38;5065000;28;20052;-66
2022/08/30 01:12:35;;;;;;;5.73;1.00;;;;;;;23.68;64.50;100715.53;4973215;28;20061;-64
2022/08/30 01:19:16;;;;;;;8.37;0.93;;;;;;;23.84;61.52;100701.25;5005621;28;20056;-65
2022/08/30 01:22:42;;;;;;;12.50;1.07;;;;;;;23.56;61.62;100716.31;4923128;28;20117;-64
2022/08/30 01:26:09;;;;;;;13.70;1.30;;;;;;;23.45;60.91;100702.81;4997233;28;20066;-64
2022/08/30 01:29:37;;;;;;;3.63;0.80;;;;;;;23.17;59.85;100693.88;5003924;28;20058;-65
2022/08/30 01:32:53;;;;;;;7.07;0.80;;;;;;;23.29;60.21;100691.38;5048044;28;20122;-63
2022/08/30 01:36:25;;;;;;;7.78;0.90;;;;;;;23.04;59.81;100655.63;5082872;28;20040;-65
2022/08/30 01:39:55;;;;;;;1.00;0.60;;;;;;;23.55;60.08;100682.59;5087775;28;20082;-65
2022/08/30 01:42:42;;;;;;;10.23;1.27;;;;;;;23.73;57.53;100653.06;5086417;28;20055;-65
2022/08/30 01:46:09;;;;;;;22.98;1.60;;;;;;;24.09;57.22;100668.47;5051860;28;20098;-64
2022/08/30 01:49:19;;;;;;;14.63;1.60;;;;;;;24.25;56.08;100681.66;5041736;28;20098;-67
2022/08/30 01:52:37;;;;;;;7.00;1.10;;;;;;;23.92;55.38;100674.94;5033117;28;20124;-66
2022/08/30 01:55:39;;;;;;;5.87;0.70;;;;;;;23.87;54.91;100655.69;5034051;28;20318;-66
2022/08/30 01:58:48;;;;;;;20.10;1.23;;;;;;;23.85;53.30;100669.13;4992889;28;20079;-63
2022/08/30 02:02:35;;;;;;;3.93;1.40;;;;;;;23.71;54.89;100668.28;4915194;29;20066;-65
2022/08/30 02:05:24;;;;;;;7.00;1.30;;;;;;;23.63;54.77;100669.63;4935588;29;20051;-65
2022/08/30 02:08:21;;;;;;;5.07;1.07;;;;;;;23.55;54.80;100677.28;4940309;28;20904;-66
2022/08/30 02:11:39;;;;;;;4.10;0.80;;;;;;;23.51;55.80;100665.06;4991748;28;20191;-65
2022/08/30 02:18:36;;;;;;;3.60;1.00;;;;;;;23.44;57.19;100658.44;4985044;28;20085;-66
2022/08/30 02:21:45;;;;;;;14.18;1.40;;;;;;;23.27;57.27;100656.84;4992441;28;20050;-64
2022/08/30 02:25:32;;;;;;;5.67;0.80;;;;;;;23.13;57.61;100655.03;4992335;28;20054;-64
2022/08/30 02:31:50;;;;;;;5.27;1.00;;;;;;;22.80;58.08;100637.50;4933590;29;20206;-64
2022/08/30 02:35:23;;;;;;;5.30;0.90;;;;;;;22.76;58.93;100641.28;4904993;29;20190;-63
2022/08/30 02:38:16;;;;;;;10.30;1.10;;;;;;;22.67;60.04;100620.56;4927306;28;20038;-66
2022/08/30 02:41:05;;;;;;;7.77;0.70;;;;;;;22.79;59.59;100643.78;4970908;28;20078;-65
2022/08/30 02:51:08;;;;;;;5.75;1.02;;;;;;;22.64;60.63;100642.06;4972159;28;20107;-67
2022/08/30 02:53:48;;;;;;;4.47;0.97;;;;;;;22.63;61.27;100626.16;4969265;28;20184;-66
2022/08/30 02:56:37;;;;;;;6.70;0.80;;;;;;;22.55;61.24;100638.13;4972696;28;20066;-66
2022/08/30 02:59:42;;;;;;;6.13;0.90;;;;;;;22.48;61.00;100638.59;4972825;28;20061;-64
2022/08/30 03:02:16;;;;;;;2.63;0.50;;;;;;;22.42;61.93;100633.66;4971825;28;20055;-63
2022/08/30 03:05:42;;;;;;;5.40;0.90;;;;;;;22.56;61.91;100617.69;4955748;28;20058;-65
2022/08/30 03:08:53;;;;;;;25.13;2.07;;;;;;;22.92;60.97;100621.72;4979490;28;20299;-65
2022/08/30 03:15:18;;;;;;;10.77;1.33;;;;;;;23.08;59.96;100630.47;4997035;28;20056;-64
2022/08/30 03:19:37;;;;;;;23.67;2.60;;;;;;;23.10;60.82;100628.56;5037798;28;20045;-64
2022/08/30 03:23:09;;;;;;;10.33;1.20;;;;;;;22.85;61.87;100561.75;4923918;29;20043;-64
2022/08/30 03:27:04;;;;;;;6.03;1.10;;;;;;;23.30;61.94;100621.97;4923627;29;20055;-64
2022/08/30 03:30:24;;;;;;;10.30;1.30;;;;;;;23.33;61.76;100618.25;4960205;28;20051;-65
2022/08/30 03:33:26;;;;;;;20.77;1.17;;;;;;;23.43;61.46;100603.38;4991213;28;20050;-67
2022/08/30 03:36:05;;;;;;;147.70;10.40;;;;;;;;;;4988804;28;20054;-61
2022/08/30 03:39:03;;;;;;;5.23;1.00;;;;;;;23.47;62.18;100556.91;4991590;28;20050;-64
2022/08/30 03:41:46;;;;;;;18.53;1.57;;;;;;;23.88;62.96;100609.34;4977227;28;20046;-65
2022/08/30 03:45:31;;;;;;;7.87;1.17;;;;;;;23.93;62.43;100607.22;4963388;28;20053;-65
2022/08/30 03:49:16;;;;;;;14.13;1.47;;;;;;;23.91;62.99;100598.47;4990240;28;20043;-64
2022/08/30 03:56:16;;;;;;;7.00;0.77;;;;;;;24.44;62.21;100585.97;4783895;30;20353;-65
2022/08/30 04:26:24;;;;;;;6.95;0.90;;;;;;;24.17;61.27;100550.50;4981441;27;5742055;-67
2022/08/30 04:29:40;;;;;;;52.00;3.73;;;;;;;23.93;62.08;100545.84;5159266;27;20050;-65
2022/08/30 04:32:18;;;;;;;10.27;0.93;;;;;;;23.82;61.69;100535.91;5159404;27;20065;-65
2022/08/30 04:35:19;;;;;;;8.90;1.30;;;;;;;23.85;61.74;100534.84;5159852;27;20082;-66
2022/08/30 04:38:25;;;;;;;16.00;1.73;;;;;;;23.75;62.13;100512.41;5153951;27;20050;-67
2022/08/30 04:41:05;;;;;;;24.80;1.90;;;;;;;23.77;61.30;100527.38;5159707;27;20110;-66
2022/08/30 04:44:01;;;;;;;7.53;1.43;;;;;;;23.74;61.70;100521.34;5160073;27;20039;-65
2022/08/30 04:47:02;;;;;;;24.73;2.23;;;;;;;23.80;61.86;100520.97;5159168;27;20119;-67
2022/08/30 04:49:50;;;;;;;5.43;1.00;;;;;;;23.75;60.97;100507.09;5158001;27;20228;-66
2022/08/30 04:52:46;;;;;;;10.00;1.10;;;;;;;23.71;61.68;100460.19;5067864;28;20081;-66
2022/08/30 04:55:48;;;;;;;7.03;1.07;;;;;;;24.27;61.33;100503.50;5070574;28;20052;-65
2022/08/30 04:58:33;;;;;;;3.10;1.00;;;;;;;24.38;60.29;100506.25;5105381;28;20056;-65
2022/08/30 05:01:22;;;;;;;14.30;1.40;;;;;;;24.46;59.58;100498.63;5086593;28;20168;-64
2022/08/30 05:04:15;;;;;;;4.37;0.70;;;;;;;24.37;59.44;100467.19;5104751;28;20106;-64
2022/08/30 05:06:52;;;;;;;55.27;4.17;;;;;;;24.52;59.12;100487.47;5079130;28;20058;-64
2022/08/30 05:09:28;;;;;;;15.63;1.47;;;;;;;24.43;59.08;100488.09;5105890;28;20052;-64
2022/08/30 05:12:04;;;;;;;10.55;1.40;;;;;;;24.46;59.46;100471.91;5104752;28;20047;-65
2022/08/30 05:14:49;;;;;;;5.50;1.00;;;;;;;24.61;59.64;100472.63;5054613;28;20044;-63
2022/08/30 05:17:33;;;;;;;5.17;0.83;;;;;;;24.78;59.60;100468.72;5106084;28;20044;-64
2022/08/30 05:20:17;;;;;;;8.07;1.13;;;;;;;24.77;58.56;100464.34;5102407;28;20131;-65
2022/08/30 05:22:57;;;;;;;29.33;2.73;;;;;;;24.83;59.17;100463.88;5105785;28;20063;-66
2022/08/30 05:28:29;;;;;;;29.57;2.07;;;;;;;24.82;58.89;100472.03;5105352;28;20043;-65
2022/08/30 05:31:17;;;;;;;41.57;3.63;;;;;;;24.51;58.72;100443.03;5065485;28;20169;-64
2022/08/30 05:33:59;;;;;;;27.13;3.07;;;;;;;24.69;59.92;100461.38;5104585;28;20174;-65
2022/08/30 05:36:36;;;;;;;7.63;1.40;;;;;;;24.87;59.54;100464.53;5121009;27;20051;-66
2022/08/30 05:39:23;;;;;;;14.00;1.23;;;;;;;24.96;59.45;100467.38;5144774;27;20058;-65
2022/08/30 05:42:21;;;;;;;4.27;0.83;;;;;;;24.98;59.03;100468.09;5117361;27;20076;-67
2022/08/30 05:45:16;;;;;;;33.03;2.50;;;;;;;24.94;59.25;100471.13;5144257;27;20129;-66
2022/08/30 05:48:09;;;;;;;4.50;1.00;;;;;;;24.87;59.16;100460.03;5103654;27;20399;-64
2022/08/30 05:51:16;;;;;;;8.33;1.43;;;;;;;24.78;59.51;100468.72;5144259;27;20054;-64
2022/08/30 05:53:48;;;;;;;8.23;1.30;;;;;;;24.70;59.45;100474.63;5144557;27;20055;-66
2022/08/30 05:56:30;;;;;;;9.63;1.53;;;;;;;24.56;59.28;100455.19;5144611;27;20057;-64
2022/08/30 05:59:17;;;;;;;7.43;1.17;;;;;;;24.51;60.22;100469.75;5141061;27;20590;-64
2022/08/30 06:02:04;;;;;;;28.07;2.10;;;;;;;24.41;60.83;100458.00;5143297;27;20217;-65
2022/08/30 06:04:42;;;;;;;6.53;1.20;;;;;;;24.40;61.42;100456.25;5143298;27;20043;-65
2022/08/30 06:07:27;;;;;;;17.37;2.03;;;;;;;24.20;61.37;100436.31;5142697;27;20047;-66
2022/08/30 06:10:07;;;;;;;109.27;6.93;;;;;;;24.28;61.72;100441.09;5144249;27;20043;-66
2022/08/30 06:12:45;;;;;;;6.97;1.10;;;;;;;24.44;61.88;100452.44;5143390;27;20084;-65
2022/08/30 06:15:25;;;;;;;25.93;2.00;;;;;;;24.44;62.02;100443.56;5107679;27;20107;-66
2022/08/30 06:18:10;;;;;;;9.47;1.53;;;;;;;24.43;61.77;100445.34;5118340;27;20067;-65
2022/08/30 06:20:52;;;;;;;165.33;12.10;;;;;;;24.27;61.97;100434.94;5143699;27;20069;-67
2022/08/30 06:23:40;;;;;;;42.73;3.50;;;;;;;24.46;62.71;100445.19;5101216;27;20093;-68
2022/08/30 06:26:20;;;;;;;14.50;1.70;;;;;;;24.58;62.37;100443.44;5143499;27;20309;-66
2022/08/30 06:28:58;;;;;;;70.63;4.47;;;;;;;24.33;61.85;100422.94;5143519;27;20047;-67
2022/08/30 06:31:43;;;;;;;11.27;1.40;;;;;;;24.40;61.91;100440.25;5143834;27;20268;-68
2022/08/30 06:34:22;;;;;;;7.00;1.63;;;;;;;23.85;62.17;100412.09;5143116;27;20122;-65
2022/08/30 06:37:11;;;;;;;28.70;2.70;;;;;;;23.68;63.13;100443.41;5143838;27;20045;-68
2022/08/30 06:40:07;;;;;;;6.83;1.20;;;;;;;23.18;64.66;100423.69;5142882;27;20039;-65
2022/08/30 06:42:53;;;;;;;21.73;1.67;;;;;;;23.12;64.78;100450.75;5143460;27;20107;-65
2022/08/30 06:45:33;;;;;;;12.53;1.70;;;;;;;22.94;65.48;100446.59;5143166;27;20062;-67
2022/08/30 06:48:10;;;;;;;10.20;1.00;;;;;;;22.76;65.76;100441.50;5102499;27;20043;-66
2022/08/30 06:50:56;;;;;;;9.23;1.00;;;;;;;22.66;66.23;100443.03;5143306;27;20051;-67
2022/08/30 06:53:40;;;;;;;6.47;1.40;;;;;;;22.58;66.33;100445.34;5115879;27;20160;-66
2022/08/30 06:56:29;;;;;;;16.03;1.90;;;;;;;22.46;66.88;100446.13;5143059;27;20047;-66
2022/08/30 06:59:07;;;;;;;8.97;1.30;;;;;;;22.38;67.60;100444.78;5143620;27;20081;-66
2022/08/30 07:02:01;;;;;;;10.87;1.37;;;;;;;22.37;68.03;100442.25;5141396;27;20950;-65
2022/08/30 07:07:38;;;;;;;12.03;1.40;;;;;;;22.55;67.59;100435.75;5116184;27;20061;-66
2022/08/30 07:10:15;;;;;;;25.25;2.20;;;;;;;22.64;67.82;100438.75;5143105;27;20093;-66
2022/08/30 07:13:22;;;;;;;11.37;1.70;;;;;;;22.64;67.94;100442.31;5143058;27;20080;-66
2022/08/30 07:16:15;;;;;;;24.93;1.83;;;;;;;22.51;68.32;100430.69;5140727;27;20122;-65
2022/08/30 07:18:54;;;;;;;52.63;3.97;;;;;;;22.10;68.41;100371.13;5142808;27;20054;-65
2022/08/30 07:21:42;;;;;;;52.67;4.50;;;;;;;22.40;68.85;100442.88;5142203;27;20124;-67
2022/08/30 07:24:31;;;;;;;30.97;3.50;;;;;;;22.49;68.63;100440.59;5142740;27;20324;-66
2022/08/30 07:27:17;;;;;;;12.93;1.40;;;;;;;22.62;68.46;100446.88;5142551;27;20067;-68
2022/08/30 07:30:05;;;;;;;8.73;1.40;;;;;;;22.66;68.57;100437.72;5142424;27;20050;-67
2022/08/30 07:32:51;;;;;;;18.90;1.73;;;;;;;22.74;66.70;100438.09;5142438;27;20076;-65
2022/08/30 07:35:45;;;;;;;36.97;2.77;;;;;;;22.80;66.38;100440.34;5142698;27;20043;-68
2022/08/30 07:38:22;;;;;;;9.83;1.20;;;;;;;22.81;65.57;100426.09;5142450;27;20051;-67
2022/08/30 07:41:23;;;;;;;30.87;3.10;;;;;;;22.74;65.86;100446.09;5142660;27;20057;-64
2022/08/30 07:43:58;;;;;;;20.50;2.13;;;;;;;22.37;66.46;100399.66;5141979;27;20118;-68
2022/08/30 07:46:47;;;;;;;11.97;1.50;;;;;;;22.53;66.78;100426.13;5142210;27;20055;-64
2022/08/30 07:49:28;;;;;;;9.30;1.23;;;;;;;22.36;67.05;100430.72;5141371;27;20118;-65
2022/08/30 07:52:11;;;;;;;32.00;2.80;;;;;;;22.32;67.53;100439.88;5111067;27;20067;-64
2022/08/30 07:54:58;;;;;;;9.85;1.92;;;;;;;22.31;67.97;100432.81;5123354;27;20071;-67
2022/08/30 07:57:41;;;;;;;70.33;4.87;;;;;;;22.30;68.53;100440.91;5142381;27;20047;-67
2022/08/30 08:03:18;;;;;;;14.68;1.48;;;;;;;22.24;69.37;100430.63;5071156;27;20051;-67
2022/08/30 08:06:00;;;;;;;93.77;5.47;;;;;;;22.18;69.45;100427.38;5141730;27;20247;-65
2022/08/30 08:08:36;;;;;;;6.23;0.90;;;;;;;21.77;69.26;100379.38;5142011;27;20070;-66
2022/08/30 08:11:28;;;;;;;21.57;2.10;;;;;;;21.95;69.55;100415.50;5141769;27;20942;-66
2022/08/30 08:14:08;;;;;;;6.13;1.20;;;;;;;21.85;69.57;100414.34;5142584;27;20039;-68
2022/08/30 08:17:08;;;;;;;12.77;1.10;;;;;;;21.70;69.77;100399.31;5089936;28;20398;-66
2022/08/30 08:19:52;;;;;;;5.97;1.10;;;;;;;21.83;70.32;100416.25;5080378;28;20056;-67
2022/08/30 08:22:34;;;;;;;24.40;2.07;;;;;;;21.70;69.84;100409.97;5088678;28;20291;-66
2022/08/30 08:25:13;;;;;;;13.70;1.20;;;;;;;21.57;69.75;100414.28;5087611;28;20227;-64
2022/08/30 08:27:50;;;;;;;74.27;4.17;;;;;;;21.43;70.12;100413.31;5086453;28;20539;-66
2022/08/30 08:30:30;;;;;;;7.17;1.40;;;;;;;21.28;70.52;100416.84;5089114;28;20641;-67
2022/08/30 08:33:20;;;;;;;79.50;6.03;;;;;;;21.03;71.20;100426.22;5088215;28;20297;-67
2022/08/30 08:36:09;;;;;;;29.27;2.40;;;;;;;20.79;71.85;100411.69;5087558;28;20058;-66
2022/08/30 08:38:50;;;;;;;79.73;5.77;;;;;;;20.67;72.41;100424.72;5087357;28;20274;-66
2022/08/30 08:42:00;;;;;;;29.07;2.70;;;;;;;20.00;72.88;100354.09;5087514;28;20348;-65
2022/08/30 08:44:58;;;;;;;11.03;1.40;;;;;;;20.33;73.80;100432.78;5044577;28;20290;-66
2022/08/30 08:47:59;;;;;;;57.83;3.13;;;;;;;20.21;74.00;100432.50;5088736;28;20305;-66
2022/08/30 08:53:33;;;;;;;42.33;3.60;;;;;;;20.05;73.84;100426.31;5087876;28;20313;-65
2022/08/30 08:53:47;;;;;;;13.93;2.13;;;;;;;19.87;73.93;100416.66;5088740;28;20361;-65
2022/08/30 08:56:33;;;;;;;71.63;4.40;;;;;;;19.72;74.27;100419.19;5087101;28;20320;-66
2022/08/30 08:59:19;;;;;;;77.30;6.37;;;;;;;19.77;74.28;100438.38;5089023;28;20345;-65
2022/08/30 09:02:04;;;;;;;14.97;1.53;;;;;;;19.58;74.57;100434.91;5088908;28;21100;-65
2022/08/30 09:04:58;;;;;;;15.27;2.00;;;;;;;19.43;74.95;100433.06;5088947;28;20285;-65
2022/08/30 09:07:37;;;;;;;15.77;1.70;;;;;;;19.42;75.48;100439.25;5110597;27;20304;-65
2022/08/30 09:10:32;;;;;;;64.40;4.37;;;;;;;19.22;75.77;100413.78;5141905;27;20292;-65
2022/08/30 09:13:30;;;;;;;42.27;3.60;;;;;;;19.25;76.24;100440.97;5145844;27;20798;-65
2022/08/30 09:16:47;;;;;;;12.50;1.80;;;;;;;19.15;76.40;100442.38;5145485;27;20373;-64
2022/08/30 09:19:42;;;;;;;26.23;2.40;;;;;;;19.09;76.61;100451.44;5123663;27;20304;-64
2022/08/30 09:22:27;;;;;;;17.30;1.83;;;;;;;18.99;77.09;100454.63;5145692;27;20281;-64
2022/08/30 09:25:25;;;;;;;11.60;1.63;;;;;;;18.94;77.62;100462.78;5144356;27;20281;-65
2022/08/30 09:28:23;;;;;;;10.43;1.17;;;;;;;18.84;77.88;100465.00;5144710;27;20296;-65
2022/08/30 09:31:20;;;;;;;11.20;1.90;;;;;;;18.75;78.15;100457.50;5145184;27;20324;-65
2022/08/30 09:34:06;;;;;;;4.87;1.40;;;;;;;18.30;78.49;100397.84;5145385;27;20287;-65
2022/08/30 09:36:48;;;;;;;10.23;1.67;;;;;;;18.64;78.77;100465.06;5144964;27;20285;-65
2022/08/30 09:39:28;;;;;;;10.10;1.23;;;;;;;18.57;78.95;100471.56;5144916;27;20284;-65
2022/08/30 09:42:20;;;;;;;47.30;4.27;;;;;;;18.41;78.79;100445.81;5117815;27;20059;-66
2022/08/30 09:45:12;;;;;;;28.77;2.40;;;;;;;18.49;78.98;100474.56;5144828;27;20292;-65
2022/08/30 09:47:48;;;;;;;11.93;2.23;;;;;;;18.45;78.89;100471.22;5144879;27;20310;-65
2022/08/30 09:50:26;;;;;;;8.47;1.50;;;;;;;18.42;79.01;100471.38;5144829;27;20297;-67
2022/08/30 09:53:15;;;;;;;6.03;1.40;;;;;;;18.38;78.72;100475.06;5144642;27;20327;-66
2022/08/30 09:56:25;;;;;;;24.03;2.83;;;;;;;18.36;78.77;100479.56;5144724;27;20288;-66
2022/08/30 09:59:33;;;;;;;34.00;2.37;;;;;;;18.29;78.86;100472.84;5118648;27;20517;-64
2022/08/30 10:02:43;;;;;;;21.80;2.53;;;;;;;18.17;78.99;100481.31;5144166;27;20318;-66
2022/08/30 10:05:36;;;;;;;23.10;1.80;;;;;;;18.08;79.25;100487.88;5134508;27;20277;-65
2022/08/30 10:08:26;;;;;;;14.93;1.70;;;;;;;18.10;79.64;100496.63;5144573;27;20305;-65
2022/08/30 10:14:26;;;;;;;38.07;2.80;;;;;;;17.84;80.07;100460.72;5141875;27;20296;-66
2022/08/30 10:17:14;;;;;;;45.50;3.27;;;;;;;17.97;80.12;100496.28;5142358;27;20900;-66
2022/08/30 10:20:26;;;;;;;31.80;3.27;;;;;;;17.95;80.73;100506.06;5143934;27;20512;-66
2022/08/30 10:23:12;;;;;;;78.27;4.83;;;;;;;17.89;80.92;100508.97;5142726;27;20505;-66
2022/08/30 10:25:55;;;;;;;39.57;3.07;;;;;;;17.85;81.62;100499.47;5143735;27;20312;-65
2022/08/30 10:28:42;;;;;;;27.83;2.33;;;;;;;17.85;81.77;100512.69;5143395;27;20353;-66
2022/08/30 10:31:29;;;;;;;45.17;3.47;;;;;;;17.65;82.01;100479.97;5143552;27;20295;-65
2022/08/30 10:34:32;;;;;;;42.80;3.67;;;;;;;17.50;82.36;100480.63;5142160;27;20840;-66
2022/08/30 10:37:22;;;;;;;33.27;4.07;;;;;;;17.46;82.63;100494.88;5114973;27;20333;-66
2022/08/30 10:41:11;;;;;;;15.37;2.00;;;;;;;17.56;83.02;100514.72;5142500;27;20365;-66
2022/08/30 10:43:14;;;;;;;28.87;2.90;;;;;;;17.53;83.15;100528.06;5143297;27;20385;-66
2022/08/30 10:46:14;;;;;;;7.87;1.67;;;;;;;17.32;83.33;100499.84;5105856;27;20308;-65
2022/08/30 10:52:12;;;;;;;6.57;1.40;;;;;;;17.40;83.58;100509.19;5123984;27;20281;-65
2022/08/30 10:55:06;;;;;;;15.23;2.20;;;;;;;17.34;83.66;100521.78;5122577;28;20320;-65
2022/08/30 10:57:41;;;;;;;11.40;1.87;;;;;;;17.29;83.94;100518.47;5123047;28;20330;-65
2022/08/30 11:00:57;;;;;;;11.30;1.60;;;;;;;17.16;84.23;100524.25;5122671;28;20274;-66
2022/08/30 11:04:15;;;;;;;55.77;3.97;;;;;;;17.01;84.25;100498.44;5122491;28;20082;-65
2022/08/30 11:06:58;;;;;;;97.63;6.23;;;;;;;17.09;84.70;100514.84;5122631;28;20665;-65
2022/08/30 11:10:13;;;;;;;53.90;4.63;;;;;;;16.92;84.94;100504.06;5122356;28;20301;-66
2022/08/30 11:16:03;;;;;;;24.07;2.03;;;;;;;16.83;86.17;100505.31;5122719;28;20346;-66
2022/08/30 11:18:55;;;;;;;10.20;1.63;;;;;;;16.80;86.56;100519.47;5121618;28;20567;-65
2022/08/30 11:21:47;;;;;;;8.40;1.50;;;;;;;16.72;87.20;100513.56;5081863;28;20301;-66
2022/08/30 11:24:35;;;;;;;6.37;1.47;;;;;;;16.69;87.54;100516.34;5101953;28;20346;-65
2022/08/30 11:27:57;;;;;;;4.33;1.57;;;;;;;16.72;88.25;100503.03;5121649;28;20293;-64
2022/08/30 11:31:04;;;;;;;4.47;1.70;;;;;;;16.80;89.32;100506.28;5121694;28;20313;-64
2022/08/30 11:33:56;;;;;;;4.60;1.97;;;;;;;16.83;89.88;100500.03;5121076;28;20296;-65
2022/08/30 11:37:10;;;;;;;4.50;1.70;;;;;;;16.89;90.83;100501.56;5120671;28;20284;-65
2022/08/30 11:39:59;;;;;;;4.47;1.67;;;;;;;16.85;90.96;100500.84;5104362;28;20294;-65
2022/08/30 11:42:56;;;;;;;5.87;1.33;;;;;;;16.76;90.94;100499.34;5121861;28;20282;-65
2022/08/30 11:45:57;;;;;;;4.70;1.53;;;;;;;16.67;90.83;100497.06;5122229;28;20571;-65
2022/08/30 11:52:51;;;;;;;4.93;2.00;;;;;;;16.56;90.25;100507.16;5108507;28;20274;-65
2022/08/30 12:00:05;;;;;;;3.00;1.77;;;;;;;16.24;90.38;100485.47;5079788;28;20334;-65
2022/08/30 12:03:14;;;;;;;5.10;1.60;;;;;;;16.18;90.33;100498.88;5093471;28;20292;-65
2022/08/30 12:06:03;;;;;;;7.90;1.83;;;;;;;16.08;90.42;100487.81;5106320;28;20305;-65
2022/08/30 12:12:04;;;;;;;2.73;1.83;;;;;;;15.91;90.79;100488.41;5120389;28;20273;-65
2022/08/30 12:15:21;;;;;;;4.95;1.90;;;;;;;15.81;91.05;100487.00;5121498;28;20289;-65
2022/08/30 12:21:29;;;;;;;4.05;1.92;;;;;;;15.74;91.65;100490.75;5121268;28;20763;-65
2022/08/30 12:28:17;;;;;;;33.90;2.73;;;;;;;15.63;90.78;100503.41;5038853;28;20312;-66
2022/08/30 12:31:22;;;;;;;14.05;2.70;;;;;;;15.62;90.60;100501.66;5078063;28;20283;-66
2022/08/30 12:34:11;;;;;;;7.97;2.30;;;;;;;15.53;90.62;100498.44;5079727;28;20048;-67
2022/08/30 12:37:03;;;;;;;10.17;2.70;;;;;;;15.33;90.88;100464.00;5083104;28;20291;-64
2022/08/30 12:39:46;;;;;;;5.20;2.23;;;;;;;15.42;90.99;100484.75;5082522;28;20348;-65
2022/08/30 12:42:36;;;;;;;4.20;2.03;;;;;;;15.47;92.04;100493.34;5082417;28;20317;-66
2022/08/30 12:45:26;;;;;;;5.00;2.10;;;;;;;15.38;92.17;100493.69;5083430;28;20285;-66
2022/08/30 12:48:13;;;;;;;6.53;2.60;;;;;;;15.23;92.11;100500.28;5086999;28;20306;-65
2022/08/30 12:51:28;;;;;;;13.60;3.37;;;;;;;15.01;92.48;100481.69;5087319;28;20295;-63
2022/08/30 12:55:01;;;;;;;13.60;3.60;;;;;;;14.94;92.72;100481.91;5084101;28;20449;-66
2022/08/30 13:01:47;;;;;;;13.03;3.87;;;;;;;14.86;93.48;100498.78;5027836;28;20276;-65
2022/08/30 13:08:26;;;;;;;5.23;2.30;;;;;;;14.66;93.80;100494.13;5044297;28;20316;-65
2022/08/30 13:11:28;;;;;;;5.27;2.20;;;;;;;14.52;93.92;100491.00;5041099;28;20299;-65
2022/08/30 13:14:36;;;;;;;5.50;2.43;;;;;;;14.21;94.23;100449.84;5008776;28;20280;-65
2022/08/30 13:17:45;;;;;;;6.70;2.40;;;;;;;14.36;94.51;100484.47;5045106;28;20296;-65
2022/08/30 13:20:54;;;;;;;8.70;2.57;;;;;;;14.33;94.92;100484.56;5045043;28;20349;-65
2022/08/30 13:23:31;;;;;;;8.83;1.97;;;;;;;14.30;94.94;100482.84;5011774;28;20383;-65
2022/08/30 13:26:19;;;;;;;9.57;2.47;;;;;;;14.34;95.12;100486.28;5053494;28;20326;-66
2022/08/30 13:29:06;;;;;;;3.77;2.00;;;;;;;14.36;95.24;100474.81;5064323;28;20353;-64
2022/08/30 13:31:55;;;;;;;2.80;1.60;;;;;;;14.00;95.10;100424.16;5015231;28;20280;-65
2022/08/30 13:34:37;;;;;;;3.83;2.10;;;;;;;14.35;94.95;100486.25;5074773;28;20298;-65
2022/08/30 13:37:43;;;;;;;7.03;1.53;;;;;;;14.35;94.58;100482.72;5086262;28;20291;-66
2022/08/30 13:40:39;;;;;;;3.90;2.43;;;;;;;14.34;94.51;100496.78;5085857;28;20287;-66
2022/08/30 13:43:27;;;;;;;7.17;1.83;;;;;;;14.39;94.96;100484.38;5071812;28;20287;-65
2022/08/30 13:46:38;;;;;;;5.80;3.38;;;;;;;14.58;96.39;100490.03;5073571;28;20350;-64
2022/08/30 13:49:30;;;;;;;9.60;4.75;;;;;;;14.80;97.73;100490.22;5086006;28;20048;-65
2022/08/30 13:52:25;;;;;;;8.33;4.30;;;;;;;14.90;97.92;100499.53;5073123;28;20049;-65
2022/08/30 13:55:21;;;;;;;4.80;2.00;;;;;;;14.69;96.14;100497.59;5085492;28;20587;-65
2022/08/30 13:58:03;;;;;;;6.20;1.70;;;;;;;14.53;95.59;100499.78;5084626;28;20341;-65
2022/08/30 14:00:46;;;;;;;10.03;2.70;;;;;;;14.40;96.02;100486.97;5070371;28;20293;-66
2022/08/30 14:03:27;;;;;;;5.10;2.10;;;;;;;14.38;96.17;100487.94;5085521;28;20314;-65
2022/08/30 14:06:15;;;;;;;6.63;2.50;;;;;;;14.42;96.47;100490.41;5085936;28;20294;-66
2022/08/30 14:09:13;;;;;;;7.03;2.83;;;;;;;14.54;96.83;100493.63;5056310;28;20334;-65
2022/08/30 14:12:07;;;;;;;7.93;3.53;;;;;;;14.66;97.39;100494.13;5085768;28;20044;-65
2022/08/30 14:14:41;;;;;;;9.63;3.37;;;;;;;14.60;97.68;100468.03;5085419;28;20291;-66
2022/08/30 14:20:14;;;;;;;6.60;3.33;;;;;;;14.82;97.04;100488.41;5071008;28;20291;-66
2022/08/30 14:22:53;;;;;;;4.23;2.57;;;;;;;14.77;96.55;100490.31;5085645;28;20341;-66
2022/08/30 14:25:41;;;;;;;4.17;2.80;;;;;;;14.63;95.97;100483.72;5094408;28;20354;-67
2022/08/30 14:28:32;;;;;;;8.37;2.57;;;;;;;14.49;95.88;100470.06;5125876;28;20292;-65
2022/08/30 14:31:18;;;;;;;4.63;2.90;;;;;;;14.61;96.21;100489.91;5126104;28;20286;-66
2022/08/30 14:34:00;;;;;;;9.93;4.00;;;;;;;14.62;96.73;100476.72;5050287;28;20286;-66
2022/08/30 14:36:38;;;;;;;7.10;3.67;;;;;;;14.74;97.40;100477.25;5079165;28;20044;-66
2022/08/30 14:39:17;;;;;;;13.33;3.90;;;;;;;14.56;97.80;100439.22;5125844;28;20286;-66
2022/08/30 14:41:59;;;;;;;7.97;4.23;;;;;;;14.96;98.15;100483.59;5074867;28;20273;-66
2022/08/30 14:45:05;;;;;;;18.33;5.80;;;;;;;15.06;98.57;100495.56;5095800;28;20293;-67
2022/08/30 14:47:55;;;;;;;12.73;5.33;;;;;;;15.08;99.26;100482.34;5096336;28;20286;-66
2022/08/30 14:50:28;;;;;;;10.18;6.28;;;;;;;14.97;99.57;100448.47;5125863;28;20301;-66
2022/08/30 14:53:16;;;;;;;14.90;6.37;;;;;;;15.25;99.92;100476.53;5078050;28;20100;-66
2022/08/30 14:56:10;;;;;;;14.52;6.38;;;;;;;15.24;99.91;100477.47;5125670;28;20281;-66
2022/08/30 14:58:49;;;;;;;14.77;6.27;;;;;;;15.31;99.70;100476.34;5071610;28;20580;-67
2022/08/30 15:01:25;;;;;;;8.87;5.50;;;;;;;15.04;99.42;100442.09;5111429;28;20315;-66
2022/08/30 15:04:09;;;;;;;7.80;4.20;;;;;;;15.20;98.89;100467.91;5071523;28;20331;-66
2022/08/30 15:06:58;;;;;;;7.93;4.43;;;;;;;15.36;98.47;100492.84;5105365;28;20290;-66
2022/08/30 15:09:47;;;;;;;8.30;4.20;;;;;;;15.32;98.38;100483.31;5104015;28;20610;-65
2022/08/30 15:12:37;;;;;;;10.13;4.60;;;;;;;15.42;97.88;100483.88;5104837;28;20324;-66
2022/08/30 15:15:20;;;;;;;6.77;3.77;;;;;;;15.52;97.53;100494.09;5105223;28;20064;-66
2022/08/30 15:18:04;;;;;;;6.20;3.67;;;;;;;15.51;96.86;100484.44;5104906;28;20278;-65
2022/08/30 15:20:51;;;;;;;6.90;3.60;;;;;;;15.50;96.41;100487.13;5105090;28;20289;-65